sensor_id;sensor_type;location;lat;lon;timestamp;pressure;altitude;pressure_sealevel;temperature;humidity
18850;BME280;4989;48.772;9.154;2023-05-11T00:04:18;97808.25;;;15.04;98.29
18850;BME280;4989;48.772;9.154;2023-05-11T00:09:20;97802.94;;;14.42;100.00
18850;BME280;4989;48.772;9.154;2023-05-11T00:14:23;97794.94;;;13.76;100.00
18850;BME280;4989;48.772;9.154;2023-05-11T00:19:25;97790.38;;;14.04;100.00
18850;BME280;4989;48.772;9.154;2023-05-11T00:24:28;97796.94;;;14.65;100.00
18850;BME280;4989;48.772;9.154;2023-05-11T00:29:30;97790.91;;;15.26;98.04
18850;BME280;4989;48.772;9.154;2023-05-11T00:34:33;97793.34;;;15.05;100.00
18850;BME280;4989;48.772;9.154;2023-05-11T00:39:35;97791.63;;;14.62;100.00
18850;BME280;4989;48.772;9.154;2023-05-11T00:44:41;97785.75;;;14.32;100.00
18850;BME280;4989;48.772;9.154;2023-05-11T00:49:45;97793.38;;;14.37;100.00
18850;BME280;4989;48.772;9.154;2023-05-11T00:54:48;97787.41;;;14.30;100.00
18850;BME280;4989;48.772;9.154;2023-05-11T00:59:50;97782.38;;;14.96;100.00
18850;BME280;4989;48.772;9.154;2023-05-11T01:04:52;97786.94;;;15.18;100.00
18850;BME280;4989;48.772;9.154;2023-05-11T01:15:33;97788.78;;;14.93;100.00
18850;BME280;4989;48.772;9.154;2023-05-11T01:20:47;97788.34;;;15.04;97.97
18850;BME280;4989;48.772;9.154;2023-05-11T01:31:15;97781.16;;;15.25;97.09
18850;BME280;4989;48.772;9.154;2023-05-11T01:36:23;97788.09;;;15.63;97.62
18850;BME280;4989;48.772;9.154;2023-05-11T01:41:28;97782.06;;;15.03;98.38
18850;BME280;4989;48.772;9.154;2023-05-11T01:46:33;97781.31;;;14.94;99.83
18850;BME280;4989;48.772;9.154;2023-05-11T01:51:36;97782.56;;;14.34;100.00
18850;BME280;4989;48.772;9.154;2023-05-11T01:56:42;97772.97;;;14.29;100.00
18850;BME280;4989;48.772;9.154;2023-05-11T02:01:45;97792.88;;;13.89;100.00
18850;BME280;4989;48.772;9.154;2023-05-11T02:06:49;97781.88;;;13.71;100.00
18850;BME280;4989;48.772;9.154;2023-05-11T02:11:55;97784.06;;;14.26;100.00
18850;BME280;4989;48.772;9.154;2023-05-11T02:17:03;97796.78;;;14.10;100.00
18850;BME280;4989;48.772;9.154;2023-05-11T02:22:08;97790.50;;;13.69;100.00
18850;BME280;4989;48.772;9.154;2023-05-11T02:27:10;97789.84;;;13.87;100.00
18850;BME280;4989;48.772;9.154;2023-05-11T02:32:19;97787.22;;;13.52;100.00
18850;BME280;4989;48.772;9.154;2023-05-11T02:37:26;97784.53;;;13.40;100.00
18850;BME280;4989;48.772;9.154;2023-05-11T02:42:37;97790.53;;;13.25;100.00
18850;BME280;4989;48.772;9.154;2023-05-11T02:47:47;97784.53;;;13.40;100.00
18850;BME280;4989;48.772;9.154;2023-05-11T02:53:00;97787.59;;;13.42;100.00
18850;BME280;4989;48.772;9.154;2023-05-11T02:58:06;97787.03;;;13.47;100.00
18850;BME280;4989;48.772;9.154;2023-05-11T03:03:10;97772.13;;;13.39;100.00
18850;BME280;4989;48.772;9.154;2023-05-11T03:08:13;97782.13;;;13.42;100.00
18850;BME280;4989;48.772;9.154;2023-05-11T03:13:15;97781.53;;;13.38;100.00
18850;BME280;4989;48.772;9.154;2023-05-11T03:18:19;97777.16;;;13.71;100.00
18850;BME280;4989;48.772;9.154;2023-05-11T03:23:23;97774.16;;;14.69;100.00
18850;BME280;4989;48.772;9.154;2023-05-11T03:28:26;97774.28;;;14.06;100.00
18850;BME280;4989;48.772;9.154;2023-05-11T03:33:36;97769.28;;;14.54;100.00
18850;BME280;4989;48.772;9.154;2023-05-11T03:38:43;97767.78;;;14.90;100.00
18850;BME280;4989;48.772;9.154;2023-05-11T03:43:51;97765.97;;;15.15;100.00
18850;BME280;4989;48.772;9.154;2023-05-11T03:48:56;97768.06;;;15.47;100.00
18850;BME280;4989;48.772;9.154;2023-05-11T03:54:02;97766.41;;;15.22;94.99
18850;BME280;4989;48.772;9.154;2023-05-11T03:59:05;97759.56;;;14.81;97.56
18850;BME280;4989;48.772;9.154;2023-05-11T04:04:07;97763.53;;;13.81;100.00
18850;BME280;4989;48.772;9.154;2023-05-11T04:09:09;97754.66;;;13.67;100.00
18850;BME280;4989;48.772;9.154;2023-05-11T04:14:12;97758.66;;;14.84;100.00
18850;BME280;4989;48.772;9.154;2023-05-11T04:19:16;97746.22;;;14.74;100.00
18850;BME280;4989;48.772;9.154;2023-05-11T04:24:18;97755.41;;;14.49;100.00
18850;BME280;4989;48.772;9.154;2023-05-11T04:29:20;97755.81;;;14.19;100.00
18850;BME280;4989;48.772;9.154;2023-05-11T04:34:23;97761.03;;;14.45;100.00
18850;BME280;4989;48.772;9.154;2023-05-11T04:39:26;97771.56;;;14.15;100.00
18850;BME280;4989;48.772;9.154;2023-05-11T04:44:29;97764.16;;;13.85;100.00
18850;BME280;4989;48.772;9.154;2023-05-11T04:49:31;97765.59;;;13.67;100.00
18850;BME280;4989;48.772;9.154;2023-05-11T04:54:33;97763.19;;;13.69;100.00
18850;BME280;4989;48.772;9.154;2023-05-11T04:59:37;97767.28;;;13.43;100.00
18850;BME280;4989;48.772;9.154;2023-05-11T05:04:39;97775.94;;;13.41;100.00
18850;BME280;4989;48.772;9.154;2023-05-11T05:09:42;97771.06;;;13.23;100.00
18850;BME280;4989;48.772;9.154;2023-05-11T05:14:48;97776.41;;;13.05;100.00
18850;BME280;4989;48.772;9.154;2023-05-11T05:19:50;97779.44;;;13.07;100.00
18850;BME280;4989;48.772;9.154;2023-05-11T05:24:53;97777.91;;;13.06;100.00
18850;BME280;4989;48.772;9.154;2023-05-11T05:29:55;97779.31;;;13.11;100.00
18850;BME280;4989;48.772;9.154;2023-05-11T05:34:59;97786.13;;;13.28;100.00
18850;BME280;4989;48.772;9.154;2023-05-11T05:40:03;97781.09;;;13.04;100.00
18850;BME280;4989;48.772;9.154;2023-05-11T05:45:09;97782.25;;;13.16;100.00
18850;BME280;4989;48.772;9.154;2023-05-11T05:50:15;97787.59;;;13.42;100.00
18850;BME280;4989;48.772;9.154;2023-05-11T05:55:19;97788.22;;;13.24;100.00
18850;BME280;4989;48.772;9.154;2023-05-11T06:00:23;97792.78;;;13.49;100.00
18850;BME280;4989;48.772;9.154;2023-05-11T06:05:35;97789.69;;;13.91;100.00
18850;BME280;4989;48.772;9.154;2023-05-11T06:10:38;97800.16;;;14.24;100.00
18850;BME280;4989;48.772;9.154;2023-05-11T06:15:41;97789.53;;;14.26;100.00
18850;BME280;4989;48.772;9.154;2023-05-11T06:20:57;97795.47;;;14.33;100.00
18850;BME280;4989;48.772;9.154;2023-05-11T06:26:01;97792.16;;;14.48;100.00
18850;BME280;4989;48.772;9.154;2023-05-11T06:31:06;97798.72;;;14.50;100.00
18850;BME280;4989;48.772;9.154;2023-05-11T06:36:10;97795.94;;;14.32;100.00
18850;BME280;4989;48.772;9.154;2023-05-11T06:41:12;97799.09;;;13.90;100.00
18850;BME280;4989;48.772;9.154;2023-05-11T06:46:15;97799.69;;;13.85;100.00
18850;BME280;4989;48.772;9.154;2023-05-11T06:51:22;97795.97;;;14.41;100.00
18850;BME280;4989;48.772;9.154;2023-05-11T06:56:24;97801.09;;;14.39;100.00
18850;BME280;4989;48.772;9.154;2023-05-11T07:01:27;97800.56;;;14.53;100.00
18850;BME280;4989;48.772;9.154;2023-05-11T07:06:30;97793.56;;;14.52;100.00
18850;BME280;4989;48.772;9.154;2023-05-11T07:11:32;97798.75;;;14.59;100.00
18850;BME280;4989;48.772;9.154;2023-05-11T07:16:35;97807.91;;;14.65;100.00
18850;BME280;4989;48.772;9.154;2023-05-11T07:21:39;97809.38;;;14.57;100.00
18850;BME280;4989;48.772;9.154;2023-05-11T07:26:41;97803.47;;;14.59;100.00
18850;BME280;4989;48.772;9.154;2023-05-11T07:31:43;97814.06;;;14.07;100.00
18850;BME280;4989;48.772;9.154;2023-05-11T07:36:46;97807.81;;;14.47;100.00
18850;BME280;4989;48.772;9.154;2023-05-11T07:41:48;97813.72;;;14.86;100.00
18850;BME280;4989;48.772;9.154;2023-05-11T07:46:51;97809.44;;;14.94;100.00
18850;BME280;4989;48.772;9.154;2023-05-11T07:51:53;97807.63;;;15.09;100.00
18850;BME280;4989;48.772;9.154;2023-05-11T07:56:55;97812.81;;;14.89;100.00
18850;BME280;4989;48.772;9.154;2023-05-11T08:01:58;97808.66;;;15.67;100.00
18850;BME280;4989;48.772;9.154;2023-05-11T08:07:02;97807.88;;;15.76;100.00
18850;BME280;4989;48.772;9.154;2023-05-11T08:12:05;97809.59;;;15.73;100.00
18850;BME280;4989;48.772;9.154;2023-05-11T08:17:07;97813.94;;;15.98;100.00
18850;BME280;4989;48.772;9.154;2023-05-11T08:22:10;97811.38;;;15.86;100.00
18850;BME280;4989;48.772;9.154;2023-05-11T08:27:12;97814.75;;;15.80;100.00
18850;BME280;4989;48.772;9.154;2023-05-11T08:32:16;97813.97;;;15.80;100.00
18850;BME280;4989;48.772;9.154;2023-05-11T08:37:18;97814.91;;;15.77;100.00
18850;BME280;4989;48.772;9.154;2023-05-11T08:42:24;97813.06;;;15.65;100.00
18850;BME280;4989;48.772;9.154;2023-05-11T08:47:28;97812.13;;;15.86;100.00
18850;BME280;4989;48.772;9.154;2023-05-11T08:52:31;97814.66;;;16.08;100.00
18850;BME280;4989;48.772;9.154;2023-05-11T08:57:34;97815.66;;;16.20;100.00
18850;BME280;4989;48.772;9.154;2023-05-11T09:02:37;97819.59;;;16.28;100.00
18850;BME280;4989;48.772;9.154;2023-05-11T09:07:42;97814.78;;;16.14;100.00
18850;BME280;4989;48.772;9.154;2023-05-11T09:12:45;97812.84;;;16.05;100.00
18850;BME280;4989;48.772;9.154;2023-05-11T09:17:47;97808.38;;;16.17;100.00
18850;BME280;4989;48.772;9.154;2023-05-11T09:22:50;97818.03;;;16.36;100.00
18850;BME280;4989;48.772;9.154;2023-05-11T09:27:52;97814.88;;;17.10;99.26
18850;BME280;4989;48.772;9.154;2023-05-11T09:32:59;97811.97;;;17.28;94.25
18850;BME280;4989;48.772;9.154;2023-05-11T09:38:10;97803.94;;;17.54;97.41
18850;BME280;4989;48.772;9.154;2023-05-11T09:48:30;97806.06;;;17.89;98.01
18850;BME280;4989;48.772;9.154;2023-05-11T09:53:42;97812.72;;;17.97;91.67
18850;BME280;4989;48.772;9.154;2023-05-11T09:58:52;97812.50;;;18.01;92.36
18850;BME280;4989;48.772;9.154;2023-05-11T10:03:56;97816.31;;;18.03;93.06
18850;BME280;4989;48.772;9.154;2023-05-11T10:09:23;97809.22;;;18.32;91.90
18850;BME280;4989;48.772;9.154;2023-05-11T10:14:31;97808.28;;;18.35;91.71
18850;BME280;4989;48.772;9.154;2023-05-11T10:19:33;97799.56;;;18.37;88.46
18850;BME280;4989;48.772;9.154;2023-05-11T10:24:36;97804.09;;;18.40;88.85
18850;BME280;4989;48.772;9.154;2023-05-11T10:29:39;97800.66;;;18.45;91.82
18850;BME280;4989;48.772;9.154;2023-05-11T10:34:44;97795.16;;;18.45;92.44
18850;BME280;4989;48.772;9.154;2023-05-11T10:39:51;97804.22;;;18.51;90.98
18850;BME280;4989;48.772;9.154;2023-05-11T10:56:25;97792.41;;;18.65;90.65
18850;BME280;4989;48.772;9.154;2023-05-11T11:01:42;97791.47;;;18.68;88.49
18850;BME280;4989;48.772;9.154;2023-05-11T11:06:45;97788.16;;;18.85;83.67
18850;BME280;4989;48.772;9.154;2023-05-11T11:11:47;97785.97;;;19.09;85.78
18850;BME280;4989;48.772;9.154;2023-05-11T11:22:44;97788.66;;;19.04;83.79
18850;BME280;4989;48.772;9.154;2023-05-11T11:32:53;97785.84;;;18.98;83.77
18850;BME280;4989;48.772;9.154;2023-05-11T11:38:00;97789.13;;;18.82;85.30
18850;BME280;4989;48.772;9.154;2023-05-11T11:43:22;97789.28;;;18.93;84.12
18850;BME280;4989;48.772;9.154;2023-05-11T11:48:38;97779.88;;;18.79;82.65
18850;BME280;4989;48.772;9.154;2023-05-11T12:09:07;97781.88;;;19.51;75.13
18850;BME280;4989;48.772;9.154;2023-05-11T12:14:10;97775.84;;;19.73;75.33
18850;BME280;4989;48.772;9.154;2023-05-11T12:19:23;97770.97;;;19.62;80.90
18850;BME280;4989;48.772;9.154;2023-05-11T12:24:25;97774.53;;;19.68;76.90
18850;BME280;4989;48.772;9.154;2023-05-11T12:29:27;97770.81;;;19.72;78.78
18850;BME280;4989;48.772;9.154;2023-05-11T12:34:30;97767.72;;;19.64;76.95
18850;BME280;4989;48.772;9.154;2023-05-11T12:39:33;97768.19;;;19.62;76.95
18850;BME280;4989;48.772;9.154;2023-05-11T12:44:39;97761.34;;;19.52;72.90
18850;BME280;4989;48.772;9.154;2023-05-11T12:49:42;97771.13;;;18.81;78.25
18850;BME280;4989;48.772;9.154;2023-05-11T12:54:49;97759.19;;;19.36;83.18
18850;BME280;4989;48.772;9.154;2023-05-11T13:00:15;97751.97;;;19.64;76.63
18850;BME280;4989;48.772;9.154;2023-05-11T13:05:23;97739.19;;;19.41;79.22
18850;BME280;4989;48.772;9.154;2023-05-11T13:10:26;97744.81;;;19.52;73.74
18850;BME280;4989;48.772;9.154;2023-05-11T13:15:29;97732.47;;;19.74;79.32
18850;BME280;4989;48.772;9.154;2023-05-11T13:20:33;97733.09;;;19.63;73.15
18850;BME280;4989;48.772;9.154;2023-05-11T13:25:55;97728.63;;;19.97;74.30
18850;BME280;4989;48.772;9.154;2023-05-11T13:30:59;97726.88;;;19.94;76.03
18850;BME280;4989;48.772;9.154;2023-05-11T13:36:02;97729.84;;;19.33;70.37
18850;BME280;4989;48.772;9.154;2023-05-11T13:41:05;97724.59;;;19.61;73.43
18850;BME280;4989;48.772;9.154;2023-05-11T13:46:08;97716.50;;;19.52;67.93
18850;BME280;4989;48.772;9.154;2023-05-11T13:51:10;97707.59;;;19.68;71.71
18850;BME280;4989;48.772;9.154;2023-05-11T13:56:13;97703.91;;;19.77;72.89
18850;BME280;4989;48.772;9.154;2023-05-11T14:01:15;97706.91;;;19.79;69.05
18850;BME280;4989;48.772;9.154;2023-05-11T14:06:21;97707.19;;;19.23;67.19
18850;BME280;4989;48.772;9.154;2023-05-11T14:11:24;97693.56;;;19.40;69.86
18850;BME280;4989;48.772;9.154;2023-05-11T14:16:27;97697.38;;;19.48;65.57
18850;BME280;4989;48.772;9.154;2023-05-11T14:21:29;97688.69;;;19.55;66.45
18850;BME280;4989;48.772;9.154;2023-05-11T14:26:33;97686.47;;;19.02;66.71
18850;BME280;4989;48.772;9.154;2023-05-11T14:31:35;97688.03;;;19.08;70.24
18850;BME280;4989;48.772;9.154;2023-05-11T14:36:38;97687.53;;;18.84;72.92
18850;BME280;4989;48.772;9.154;2023-05-11T14:41:40;97680.72;;;19.05;70.87
18850;BME280;4989;48.772;9.154;2023-05-11T14:46:42;97673.38;;;19.22;69.75
18850;BME280;4989;48.772;9.154;2023-05-11T14:51:45;97671.47;;;19.34;67.23
18850;BME280;4989;48.772;9.154;2023-05-11T14:56:47;97668.72;;;19.08;64.79
18850;BME280;4989;48.772;9.154;2023-05-11T15:01:57;97667.06;;;19.48;66.43
18850;BME280;4989;48.772;9.154;2023-05-11T15:07:00;97662.31;;;19.80;64.71
18850;BME280;4989;48.772;9.154;2023-05-11T15:12:03;97673.88;;;20.27;62.00
18850;BME280;4989;48.772;9.154;2023-05-11T15:17:05;97675.16;;;19.89;61.55
18850;BME280;4989;48.772;9.154;2023-05-11T15:22:08;97666.94;;;19.31;61.29
18850;BME280;4989;48.772;9.154;2023-05-11T15:27:10;97665.34;;;19.19;66.93
18850;BME280;4989;48.772;9.154;2023-05-11T15:32:13;97661.59;;;18.96;63.10
18850;BME280;4989;48.772;9.154;2023-05-11T15:37:16;97664.75;;;19.09;71.09
18850;BME280;4989;48.772;9.154;2023-05-11T15:42:18;97651.69;;;19.04;67.93
18850;BME280;4989;48.772;9.154;2023-05-11T15:47:20;97660.41;;;19.03;69.64
18850;BME280;4989;48.772;9.154;2023-05-11T15:52:23;97666.47;;;18.81;70.77
18850;BME280;4989;48.772;9.154;2023-05-11T15:57:25;97665.22;;;18.82;66.71
18850;BME280;4989;48.772;9.154;2023-05-11T16:02:27;97672.50;;;18.85;78.60
18850;BME280;4989;48.772;9.154;2023-05-11T16:07:30;97669.56;;;18.88;70.64
18850;BME280;4989;48.772;9.154;2023-05-11T16:12:32;97666.75;;;18.62;69.11
18850;BME280;4989;48.772;9.154;2023-05-11T16:17:34;97668.13;;;18.52;71.11
18850;BME280;4989;48.772;9.154;2023-05-11T16:22:37;97664.81;;;18.48;71.55
18850;BME280;4989;48.772;9.154;2023-05-11T16:27:40;97670.22;;;18.37;68.27
18850;BME280;4989;48.772;9.154;2023-05-11T16:32:42;97668.28;;;18.22;71.18
18850;BME280;4989;48.772;9.154;2023-05-11T16:37:44;97663.56;;;18.08;70.07
18850;BME280;4989;48.772;9.154;2023-05-11T16:42:49;97663.28;;;18.06;72.85
18850;BME280;4989;48.772;9.154;2023-05-11T16:47:51;97663.72;;;18.19;74.59
18850;BME280;4989;48.772;9.154;2023-05-11T16:52:53;97668.59;;;18.30;80.28
18850;BME280;4989;48.772;9.154;2023-05-11T16:57:56;97667.44;;;18.57;76.35
18850;BME280;4989;48.772;9.154;2023-05-11T17:02:58;97668.13;;;18.52;72.48
18850;BME280;4989;48.772;9.154;2023-05-11T17:08:01;97673.53;;;18.05;72.01
18850;BME280;4989;48.772;9.154;2023-05-11T17:13:03;97669.78;;;18.23;80.78
18850;BME280;4989;48.772;9.154;2023-05-11T17:18:06;97660.28;;;18.45;86.31
18850;BME280;4989;48.772;9.154;2023-05-11T17:23:09;97670.47;;;18.39;83.75
18850;BME280;4989;48.772;9.154;2023-05-11T17:28:12;97665.03;;;18.24;78.63
18850;BME280;4989;48.772;9.154;2023-05-11T17:33:14;97660.16;;;17.63;72.74
18850;BME280;4989;48.772;9.154;2023-05-11T17:38:17;97674.66;;;17.78;82.46
18850;BME280;4989;48.772;9.154;2023-05-11T17:43:19;97670.50;;;17.68;77.54
18850;BME280;4989;48.772;9.154;2023-05-11T17:48:21;97673.91;;;17.63;77.79
18850;BME280;4989;48.772;9.154;2023-05-11T17:53:25;97676.22;;;17.50;78.42
18850;BME280;4989;48.772;9.154;2023-05-11T17:58:28;97657.63;;;17.45;84.35
18850;BME280;4989;48.772;9.154;2023-05-11T18:03:30;97669.03;;;17.37;78.11
18850;BME280;4989;48.772;9.154;2023-05-11T18:08:34;97677.72;;;17.06;81.60
18850;BME280;4989;48.772;9.154;2023-05-11T18:13:37;97683.78;;;16.96;83.53
18850;BME280;4989;48.772;9.154;2023-05-11T18:18:39;97680.66;;;16.64;83.41
18850;BME280;4989;48.772;9.154;2023-05-11T18:23:43;97680.41;;;16.62;82.79
18850;BME280;4989;48.772;9.154;2023-05-11T18:28:47;97688.13;;;16.87;85.59
18850;BME280;4989;48.772;9.154;2023-05-11T18:33:49;97694.94;;;16.77;81.65
18850;BME280;4989;48.772;9.154;2023-05-11T18:38:51;97693.97;;;16.41;84.28
18850;BME280;4989;48.772;9.154;2023-05-11T18:43:54;97693.66;;;16.39;83.83
18850;BME280;4989;48.772;9.154;2023-05-11T18:48:57;97691.91;;;16.27;84.84
18850;BME280;4989;48.772;9.154;2023-05-11T18:53:59;97699.50;;;16.32;86.76
18850;BME280;4989;48.772;9.154;2023-05-11T18:59:02;97708.38;;;16.27;85.79
18850;BME280;4989;48.772;9.154;2023-05-11T19:04:05;97705.09;;;16.14;87.79
18850;BME280;4989;48.772;9.154;2023-05-11T19:09:09;97708.41;;;16.18;98.18
18850;BME280;4989;48.772;9.154;2023-05-11T19:14:11;97707.25;;;16.58;88.44
18850;BME280;4989;48.772;9.154;2023-05-11T19:19:15;97709.59;;;16.50;90.47
18850;BME280;4989;48.772;9.154;2023-05-11T19:24:17;97717.72;;;16.44;95.56
18850;BME280;4989;48.772;9.154;2023-05-11T19:29:20;97715.78;;;16.60;92.18
18850;BME280;4989;48.772;9.154;2023-05-11T19:34:23;97721.09;;;16.39;88.92
18850;BME280;4989;48.772;9.154;2023-05-11T19:39:26;97719.69;;;16.20;93.28
18850;BME280;4989;48.772;9.154;2023-05-11T19:44:28;97734.38;;;16.08;92.19
18850;BME280;4989;48.772;9.154;2023-05-11T19:49:34;97732.00;;;15.91;92.59
18850;BME280;4989;48.772;9.154;2023-05-11T19:54:36;97728.09;;;15.83;91.76
18850;BME280;4989;48.772;9.154;2023-05-11T19:59:38;97735.28;;;15.71;93.21
18850;BME280;4989;48.772;9.154;2023-05-11T20:04:40;97732.38;;;15.66;93.85
18850;BME280;4989;48.772;9.154;2023-05-11T20:09:46;97729.69;;;15.56;94.98
18850;BME280;4989;48.772;9.154;2023-05-11T20:14:48;97724.78;;;15.61;96.04
18850;BME280;4989;48.772;9.154;2023-05-11T20:19:51;97724.34;;;15.62;96.40
18850;BME280;4989;48.772;9.154;2023-05-11T20:24:53;97725.13;;;15.53;97.49
18850;BME280;4989;48.772;9.154;2023-05-11T20:29:56;97719.44;;;16.09;91.94
18850;BME280;4989;48.772;9.154;2023-05-11T20:34:58;97725.94;;;16.68;100.00
18850;BME280;4989;48.772;9.154;2023-05-11T20:40:01;97722.94;;;16.81;93.27
18850;BME280;4989;48.772;9.154;2023-05-11T20:45:05;97722.16;;;17.05;94.81
18850;BME280;4989;48.772;9.154;2023-05-11T20:50:09;97716.47;;;17.23;93.82
18850;BME280;4989;48.772;9.154;2023-05-11T20:55:11;97725.09;;;17.16;95.74
18850;BME280;4989;48.772;9.154;2023-05-11T21:00:14;97724.63;;;17.32;90.06
18850;BME280;4989;48.772;9.154;2023-05-11T21:05:17;97728.31;;;17.29;90.54
18850;BME280;4989;48.772;9.154;2023-05-11T21:10:19;97722.44;;;17.07;88.78
18850;BME280;4989;48.772;9.154;2023-05-11T21:15:22;97716.38;;;17.03;88.68
18850;BME280;4989;48.772;9.154;2023-05-11T21:20:24;97726.75;;;16.60;90.23
18850;BME280;4989;48.772;9.154;2023-05-11T21:25:26;97715.47;;;16.58;92.20
18850;BME280;4989;48.772;9.154;2023-05-11T21:30:29;97720.56;;;16.74;94.96
18850;BME280;4989;48.772;9.154;2023-05-11T21:35:31;97722.94;;;16.81;94.97
18850;BME280;4989;48.772;9.154;2023-05-11T21:40:34;97723.38;;;17.04;94.27
18850;BME280;4989;48.772;9.154;2023-05-11T21:45:36;97729.06;;;17.15;93.84
18850;BME280;4989;48.772;9.154;2023-05-11T21:50:38;97728.66;;;16.92;92.95
18850;BME280;4989;48.772;9.154;2023-05-11T21:55:40;97720.88;;;16.91;94.54
18850;BME280;4989;48.772;9.154;2023-05-11T22:00:43;97723.91;;;16.78;91.76
18850;BME280;4989;48.772;9.154;2023-05-11T22:05:46;97728.56;;;16.63;94.06
18850;BME280;4989;48.772;9.154;2023-05-11T22:10:48;97727.00;;;16.23;94.01
18850;BME280;4989;48.772;9.154;2023-05-11T22:15:50;97728.97;;;15.89;96.92
18850;BME280;4989;48.772;9.154;2023-05-11T22:20:53;97724.00;;;15.78;97.56
18850;BME280;4989;48.772;9.154;2023-05-11T22:25:55;97722.53;;;16.01;98.26
18850;BME280;4989;48.772;9.154;2023-05-11T22:30:58;97723.84;;;16.39;97.57
18850;BME280;4989;48.772;9.154;2023-05-11T22:36:01;97726.50;;;16.48;99.09
18850;BME280;4989;48.772;9.154;2023-05-11T22:41:04;97730.72;;;16.59;93.68
18850;BME280;4989;48.772;9.154;2023-05-11T22:46:07;97727.63;;;16.66;98.93
18850;BME280;4989;48.772;9.154;2023-05-11T22:51:09;97731.38;;;16.54;95.66
18850;BME280;4989;48.772;9.154;2023-05-11T22:56:11;97727.34;;;16.07;97.12
18850;BME280;4989;48.772;9.154;2023-05-11T23:01:14;97728.28;;;16.03;100.00
18850;BME280;4989;48.772;9.154;2023-05-11T23:06:16;97723.25;;;16.35;100.00
18850;BME280;4989;48.772;9.154;2023-05-11T23:11:19;97722.94;;;16.57;100.00
18850;BME280;4989;48.772;9.154;2023-05-11T23:16:21;97713.22;;;16.80;99.46
18850;BME280;4989;48.772;9.154;2023-05-11T23:21:23;97720.75;;;16.46;98.98
18850;BME280;4989;48.772;9.154;2023-05-11T23:26:25;97717.81;;;16.74;97.58
18850;BME280;4989;48.772;9.154;2023-05-11T23:31:28;97717.13;;;16.88;100.00
18850;BME280;4989;48.772;9.154;2023-05-11T23:36:33;97723.84;;;17.02;96.86
18850;BME280;4989;48.772;9.154;2023-05-11T23:41:35;97719.19;;;16.93;99.90
18850;BME280;4989;48.772;9.154;2023-05-11T23:46:38;97718.97;;;16.82;95.37
18850;BME280;4989;48.772;9.154;2023-05-11T23:51:40;97705.94;;;16.29;96.30
18850;BME280;4989;48.772;9.154;2023-05-11T23:56:42;97704.41;;;15.71;100.00
